Cooperville, Idaho
Current Conditions -  °F | °C
As of 2:35 PM on Friday 19 Dec 2014 (Local Time) from KGIC Reporting Station
Overcast Overcast  
Wind Chill: 35°   Ceiling: 3600
Heat Index: 41°   Visibility: 10mi
Dew Point: 33°   Wind: 10mph
Humidity: 73%   Direction: 300°WNW
Pressure: 30"   Gusts: 20mph
Location:  45.7487°N, 116.14°W
Report Text: KGIC 192235Z AUTO 30009G17KT 10SM SCT026 BKN036 OVC070 05/01 A3000 RMK AO1 T00490005
Loading
Personal Weather Stations






























Interactive Weather Map New forecast layout! Learn more

10-Day Weather Forecast

Advertisements
Track Severe Weather on mobile